Time;durP1;ratioP1;P1;durP2;ratioP2;P2;SDS_P1;SDS_P2;PMS_P1;PMS_P2;Temp;Humidity;BMP_temperature;BMP_pressure;BME280_temperature;BME280_humidity;BME280_pressure;Samples;Min_cycle;Max_cycle;Signal;HPM_P1;HPM_P2
2021/09/09 00:01:30;;;;;;;;;;;;;;;16.62;68.17;96244.00;5056811;28;19951;-85
2021/09/09 00:03:56;;;;;;;;;;;;;;;16.58;68.71;96238.41;5056584;28;19959;-84
2021/09/09 00:06:22;;;;;;;;;;;;;;;16.55;68.37;96238.94;5056683;28;19952;-84
2021/09/09 00:08:48;;;;;;;;;;;;;;;16.54;68.58;96247.13;5055521;28;19958;-84
2021/09/09 00:11:14;;;;;;;;;;;;;;;16.50;68.60;96240.78;5056108;28;19967;-85
2021/09/09 00:13:40;;;;;;;;;;;;;;;16.47;68.72;96238.66;5056304;28;20399;-84
2021/09/09 00:16:06;;;;;;;;;;;;;;;16.44;68.60;96240.78;5055625;28;19951;-84
2021/09/09 00:18:32;;;;;;;;;;;;;;;16.41;68.64;96235.97;5056474;28;19962;-84
2021/09/09 00:20:58;;;;;;;;;;;;;;;16.39;69.21;96239.94;5056251;28;19950;-85
2021/09/09 00:23:24;;;;;;;;;;;;;;;16.36;69.03;96243.91;5056023;28;20041;-85
2021/09/09 00:25:50;;;;;;;;;;;;;;;16.33;68.93;96240.97;5055999;28;19962;-85
2021/09/09 00:28:17;;;;;;;;;;;;;;;16.30;68.73;96237.00;5056109;28;19954;-85
2021/09/09 00:30:43;;;;;;;;;;;;;;;16.29;68.88;96247.84;5056418;28;19962;-85
2021/09/09 00:33:09;;;;;;;;;;;;;;;16.26;69.20;96246.53;5054834;28;19954;-85
2021/09/09 00:35:35;;;;;;;;;;;;;;;16.23;69.07;96234.63;5056268;28;19953;-85
2021/09/09 00:38:02;;;;;;;;;;;;;;;16.20;69.34;96232.47;5055926;28;19952;-84
2021/09/09 00:40:28;;;;;;;;;;;;;;;16.17;69.39;96229.56;5055797;28;19949;-84
2021/09/09 00:42:54;;;;;;;;;;;;;;;16.12;69.63;96234.81;5055792;28;19959;-85
2021/09/09 00:45:20;;;;;;;;;;;;;;;16.09;69.55;96235.34;5055624;28;19946;-85
2021/09/09 00:47:46;;;;;;;;;;;;;;;16.07;69.91;96237.44;5055724;28;20020;-85
2021/09/09 00:50:12;;;;;;;;;;;;;;;16.05;69.77;96239.56;5056035;28;19946;-85
2021/09/09 00:52:44;;;;;;;;;;;;;;;16.03;70.25;96235.31;5054708;28;19978;-84
2021/09/09 00:55:10;;;;;;;;;;;;;;;16.02;69.84;96228.44;5055956;28;19949;-85
2021/09/09 00:57:36;;;;;;;;;;;;;;;16.01;70.30;96234.78;5055403;28;19936;-85
2021/09/09 01:00:03;;;;;;;;;;;;;;;16.00;70.64;96227.09;5055784;28;20270;-85
2021/09/09 01:02:29;;;;;;;;;;;;;;;15.98;70.16;96223.91;5055264;28;19954;-85
2021/09/09 01:04:55;;;;;;;;;;;;;;;15.97;70.33;96231.03;5055576;28;19953;-85
2021/09/09 01:07:21;;;;;;;;;;;;;;;15.97;70.77;96232.91;5055535;28;20418;-85
2021/09/09 01:09:47;;;;;;;;;;;;;;;15.96;70.56;96229.47;5055286;28;19954;-85
2021/09/09 01:12:12;;;;;;;;;;;;;;;15.95;70.68;96225.22;5055057;28;19978;-85
2021/09/09 01:14:40;;;;;;;;;;;;;;;15.94;70.74;96226.28;5055522;28;20404;-85
2021/09/09 01:17:06;;;;;;;;;;;;;;;15.95;70.90;96216.50;5055123;28;19947;-84
2021/09/09 01:19:32;;;;;;;;;;;;;;;15.93;71.06;96208.81;5053755;28;19953;-84
2021/09/09 01:21:58;;;;;;;;;;;;;;;15.88;70.89;96214.09;5055228;28;19974;-85
2021/09/09 01:24:24;;;;;;;;;;;;;;;15.86;70.80;96210.91;5054865;28;19962;-85
2021/09/09 01:26:52;;;;;;;;;;;;;;;15.83;71.19;96209.56;5054998;28;20100;-84
2021/09/09 01:29:19;;;;;;;;;;;;;;;15.83;71.12;96203.47;5055157;28;19947;-85
2021/09/09 01:31:45;;;;;;;;;;;;;;;15.81;71.49;96209.03;5054721;28;19969;-85
2021/09/09 01:34:11;;;;;;;;;;;;;;;15.79;71.19;96213.78;5054848;28;19956;-85
2021/09/09 01:36:37;;;;;;;;;;;;;;;15.77;71.28;96213.25;5054882;28;19963;-85
2021/09/09 01:39:03;;;;;;;;;;;;;;;15.76;70.71;96203.69;5054601;28;19943;-85
2021/09/09 01:41:28;;;;;;;;;;;;;;;15.73;71.15;96217.44;5054061;28;20398;-85
2021/09/09 01:43:54;;;;;;;;;;;;;;;15.71;71.11;96218.72;5054637;28;19952;-84
2021/09/09 01:46:20;;;;;;;;;;;;;;;15.68;70.94;96212.09;5054137;28;20382;-85
2021/09/09 01:48:47;;;;;;;;;;;;;;;15.65;71.39;96217.91;5053765;28;19950;-84
2021/09/09 01:51:13;;;;;;;;;;;;;;;15.63;71.77;96217.34;5054559;28;19979;-84
2021/09/09 01:53:39;;;;;;;;;;;;;;;15.59;71.41;96209.13;5054302;28;19995;-84
2021/09/09 01:56:05;;;;;;;;;;;;;;;15.56;72.38;96206.19;5054818;28;20418;-85
2021/09/09 01:58:31;;;;;;;;;;;;;;;15.53;71.84;96212.00;5054415;28;19958;-84
2021/09/09 02:00:57;;;;;;;;;;;;;;;15.52;72.36;96205.13;5054942;28;19990;-84
2021/09/09 02:03:24;;;;;;;;;;;;;;;15.51;72.27;96204.31;5053242;28;19956;-84
2021/09/09 02:05:50;;;;;;;;;;;;;;;15.51;71.97;96203.53;5054415;28;19950;-85
2021/09/09 02:08:16;;;;;;;;;;;;;;;15.54;72.14;96201.19;5054012;28;20287;-85
2021/09/09 02:10:42;;;;;;;;;;;;;;;15.55;72.12;96201.97;5054302;28;19952;-85
2021/09/09 02:13:08;;;;;;;;;;;;;;;15.55;72.25;96199.31;5054243;28;20296;-85
2021/09/09 02:15:34;;;;;;;;;;;;;;;15.54;72.37;96205.66;5054225;28;20400;-84
2021/09/09 02:17:59;;;;;;;;;;;;;;;15.53;72.22;96204.06;5054294;28;19961;-85
2021/09/09 02:20:26;;;;;;;;;;;;;;;15.52;72.46;96205.13;5054095;28;19961;-84
2021/09/09 02:22:52;;;;;;;;;;;;;;;15.49;72.21;96198.50;5053861;28;19980;-85
2021/09/09 02:25:18;;;;;;;;;;;;;;;15.48;72.66;96204.06;5054075;28;19983;-85
2021/09/09 02:27:44;;;;;;;;;;;;;;;15.45;72.44;96200.06;5053828;28;20409;-85
2021/09/09 02:30:10;;;;;;;;;;;;;;;15.43;72.46;96196.88;5054011;28;19941;-85
2021/09/09 02:32:36;;;;;;;;;;;;;;;15.40;72.47;96200.81;5053674;28;19979;-85
2021/09/09 02:35:02;;;;;;;;;;;;;;;15.41;72.53;96202.44;5053644;28;19945;-85
2021/09/09 02:37:28;;;;;;;;;;;;;;;15.40;73.10;96202.69;5053484;28;19957;-85
2021/09/09 02:39:54;;;;;;;;;;;;;;;15.39;73.43;96198.44;5053952;28;20038;-85
2021/09/09 02:42:20;;;;;;;;;;;;;;;15.37;73.10;96201.34;5053654;28;19947;-85
2021/09/09 02:44:46;;;;;;;;;;;;;;;15.38;72.96;96208.22;5054067;28;20035;-85
2021/09/09 02:47:12;;;;;;;;;;;;;;;15.37;73.01;96197.88;5055256;28;19954;-85
2021/09/09 02:49:38;;;;;;;;;;;;;;;15.37;72.78;96200.53;5054435;28;19957;-85
2021/09/09 02:52:04;;;;;;;;;;;;;;;15.37;72.74;96201.34;5053688;28;20330;-84
2021/09/09 02:54:30;;;;;;;;;;;;;;;15.38;73.11;96199.50;5053636;28;19963;-84
2021/09/09 02:56:56;;;;;;;;;;;;;;;15.37;72.96;96201.34;5053747;28;20040;-85
2021/09/09 02:59:21;;;;;;;;;;;;;;;15.38;72.98;96194.19;5052676;28;20413;-85
2021/09/09 03:01:47;;;;;;;;;;;;;;;15.38;73.15;96194.19;5053438;28;20397;-85
2021/09/09 03:04:13;;;;;;;;;;;;;;;15.37;73.23;96184.66;5053391;28;19950;-85
2021/09/09 03:06:39;;;;;;;;;;;;;;;15.36;73.40;96183.88;5052103;28;19980;-85
2021/09/09 03:09:05;;;;;;;;;;;;;;;15.36;73.38;96186.53;5053023;28;19967;-85
2021/09/09 03:11:31;;;;;;;;;;;;;;;15.35;73.51;96182.31;5053505;28;20047;-85
2021/09/09 03:13:57;;;;;;;;;;;;;;;15.34;73.44;96183.34;5053346;28;19955;-84
2021/09/09 03:16:22;;;;;;;;;;;;;;;15.32;74.01;96177.50;5053494;28;19952;-85
2021/09/09 03:18:48;;;;;;;;;;;;;;;15.32;73.71;96182.78;5053258;28;19986;-85
2021/09/09 03:21:14;;;;;;;;;;;;;;;15.31;74.28;96180.44;5053339;28;19996;-85
2021/09/09 03:23:40;;;;;;;;;;;;;;;15.31;74.07;96183.06;5053603;28;20012;-85
2021/09/09 03:26:06;;;;;;;;;;;;;;;15.28;74.10;96181.72;5053671;28;19959;-85
2021/09/09 03:28:32;;;;;;;;;;;;;;;15.29;74.24;96182.53;5053284;28;20437;-84
2021/09/09 03:30:58;;;;;;;;;;;;;;;15.29;73.73;96179.88;5053300;28;19972;-85
2021/09/09 03:33:24;;;;;;;;;;;;;;;15.26;74.45;96178.53;5053143;28;19955;-84
2021/09/09 03:35:50;;;;;;;;;;;;;;;15.23;74.59;96181.69;5053192;28;19953;-85
2021/09/09 03:38:16;;;;;;;;;;;;;;;15.20;74.28;96180.34;5053196;28;20420;-85
2021/09/09 03:40:42;;;;;;;;;;;;;;;15.16;74.66;96175.81;5053399;28;19959;-84
2021/09/09 03:43:07;;;;;;;;;;;;;;;15.10;74.67;96177.63;5053185;28;20473;-84
2021/09/09 03:45:33;;;;;;;;;;;;;;;15.05;74.14;96180.22;5053185;28;20425;-84
2021/09/09 03:47:59;;;;;;;;;;;;;;;14.93;75.14;96177.78;5052935;28;19961;-84
2021/09/09 03:50:25;;;;;;;;;;;;;;;14.88;75.18;96176.94;5053043;28;19990;-84
2021/09/09 03:52:51;;;;;;;;;;;;;;;14.86;75.08;96174.53;5051336;28;19971;-85
2021/09/09 03:55:17;;;;;;;;;;;;;;;14.85;74.92;96177.44;5053096;28;20005;-85
2021/09/09 03:57:43;;;;;;;;;;;;;;;14.85;75.34;96172.16;5052906;28;19970;-85
2021/09/09 04:00:09;;;;;;;;;;;;;;;14.88;74.79;96177.72;5053098;28;20415;-85
2021/09/09 04:02:35;;;;;;;;;;;;;;;14.87;74.76;96173.50;5052891;28;19954;-84
2021/09/09 04:05:02;;;;;;;;;;;;;;;14.88;74.62;96171.66;5051709;28;20033;-85
2021/09/09 04:07:28;;;;;;;;;;;;;;;14.89;75.29;96176.69;5052843;28;19953;-85
2021/09/09 04:09:54;;;;;;;;;;;;;;;14.89;75.30;96183.78;5054899;28;19955;-85
2021/09/09 04:12:19;;;;;;;;;;;;;;;14.87;75.82;96173.50;5056357;28;19996;-85
2021/09/09 04:14:45;;;;;;;;;;;;;;;14.84;77.26;96171.34;5056279;28;19950;-85
2021/09/09 04:17:11;;;;;;;;;;;;;;;14.84;75.99;96170.56;5056669;28;20041;-84
2021/09/09 04:19:37;;;;;;;;;;;;;;;14.85;75.85;96172.16;5056082;28;19959;-84
2021/09/09 04:22:07;;;;;;;;;;;;;;;14.85;75.70;96166.88;5056356;28;20067;-85
2021/09/09 04:24:33;;;;;;;;;;;;;;;14.87;75.58;96172.72;5056247;28;19960;-85
2021/09/09 04:26:59;;;;;;;;;;;;;;;14.87;75.68;96176.13;5056105;28;19946;-85
2021/09/09 04:29:26;;;;;;;;;;;;;;;14.88;75.64;96176.94;5056244;28;19951;-84
2021/09/09 04:31:52;;;;;;;;;;;;;;;14.90;76.20;96172.97;5055835;28;20449;-84
2021/09/09 04:34:18;;;;;;;;;;;;;;;14.92;75.32;96181.44;5056496;28;19952;-85
2021/09/09 04:36:44;;;;;;;;;;;;;;;14.93;75.53;96183.06;5055929;28;20006;-85
2021/09/09 04:39:10;;;;;;;;;;;;;;;14.93;75.79;96184.88;5055186;28;19952;-85
2021/09/09 04:41:37;;;;;;;;;;;;;;;14.97;75.57;96193.88;5055266;28;20033;-84
2021/09/09 04:44:04;;;;;;;;;;;;;;;14.98;75.23;96180.44;5055719;28;20405;-84
2021/09/09 04:46:29;;;;;;;;;;;;;;;14.99;75.22;96189.16;5055643;28;19957;-85
2021/09/09 04:48:56;;;;;;;;;;;;;;;14.98;75.20;96183.09;5055696;28;20353;-84
2021/09/09 04:51:22;;;;;;;;;;;;;;;15.00;74.97;96185.47;5055687;28;19955;-85
2021/09/09 04:53:48;;;;;;;;;;;;;;;15.00;74.85;96181.00;5055966;28;20045;-85
2021/09/09 04:56:14;;;;;;;;;;;;;;;15.03;74.74;96187.59;5055629;28;20309;-84
2021/09/09 04:58:40;;;;;;;;;;;;;;;15.04;74.94;96189.22;5055719;28;19957;-85
2021/09/09 05:01:07;;;;;;;;;;;;;;;15.06;74.72;96186.31;5055411;28;19947;-84
2021/09/09 05:03:33;;;;;;;;;;;;;;;15.07;76.35;96187.91;5055764;28;20345;-84
2021/09/09 05:05:59;;;;;;;;;;;;;;;15.06;74.97;96181.03;5055628;28;20033;-85
2021/09/09 05:08:25;;;;;;;;;;;;;;;15.06;75.30;96195.03;5053890;28;20010;-84
2021/09/09 05:10:51;;;;;;;;;;;;;;;15.06;75.16;96189.75;5055314;28;20351;-85
2021/09/09 05:13:17;;;;;;;;;;;;;;;15.09;75.38;96196.38;5055183;28;19967;-85
2021/09/09 05:15:42;;;;;;;;;;;;;;;15.10;75.09;96193.47;5055332;28;20407;-84
2021/09/09 05:18:08;;;;;;;;;;;;;;;15.13;74.87;96195.59;5055269;28;19956;-84
2021/09/09 05:20:34;;;;;;;;;;;;;;;15.15;74.96;96190.88;5054882;28;19958;-83
2021/09/09 05:23:00;;;;;;;;;;;;;;;15.17;76.69;96204.63;5054357;28;20070;-84
2021/09/09 05:25:26;;;;;;;;;;;;;;;15.16;75.56;96200.41;5055153;28;20503;-84
2021/09/09 05:27:52;;;;;;;;;;;;;;;15.26;75.71;96194.38;5054930;28;20418;-84
2021/09/09 05:30:18;;;;;;;;;;;;;;;15.57;75.32;96197.22;5054796;28;19979;-84
2021/09/09 05:32:44;;;;;;;;;;;;;;;15.94;74.10;96196.41;5055082;28;20024;-83
2021/09/09 05:35:10;;;;;;;;;;;;;;;16.30;73.20;96197.31;5054802;28;20001;-84
2021/09/09 05:37:36;;;;;;;;;;;;;;;16.70;71.65;96206.41;5054900;28;20045;-84
2021/09/09 05:40:03;;;;;;;;;;;;;;;17.08;70.15;96196.41;5054843;28;20410;-84
2021/09/09 05:42:29;;;;;;;;;;;;;;;17.41;69.49;96195.06;5054849;28;20324;-84
2021/09/09 05:44:55;;;;;;;;;;;;;;;17.77;68.56;96192.31;5054809;28;19947;-84
2021/09/09 05:47:21;;;;;;;;;;;;;;;18.09;67.04;96196.50;5054645;28;19948;-84
2021/09/09 05:49:47;;;;;;;;;;;;;;;18.29;65.37;96192.16;5054992;28;19963;-84
2021/09/09 05:52:13;;;;;;;;;;;;;;;18.51;65.85;96202.41;5054389;28;20000;-84
2021/09/09 05:54:38;;;;;;;;;;;;;;;18.71;64.76;96196.16;5054510;28;20041;-84
2021/09/09 05:57:04;;;;;;;;;;;;;;;18.94;64.85;96202.69;5054644;28;20405;-84
2021/09/09 05:59:30;;;;;;;;;;;;;;;19.18;63.41;96198.25;5054157;28;19960;-84
2021/09/09 06:01:57;;;;;;;;;;;;;;;19.48;63.99;96204.34;5054372;28;19996;-84
2021/09/09 06:04:26;;;;;;;;;;;;;;;19.78;63.63;96195.31;5054489;28;19951;-83
2021/09/09 06:06:52;;;;;;;;;;;;;;;20.07;62.21;96200.59;5053148;28;19946;-84
2021/09/09 06:09:18;;;;;;;;;;;;;;;20.31;61.07;96190.97;5054219;28;19953;-84
2021/09/09 06:11:44;;;;;;;;;;;;;;;20.43;60.19;96189.47;5054249;28;20484;-84
2021/09/09 06:14:10;;;;;;;;;;;;;;;20.56;60.22;96193.28;5053934;28;19949;-84
2021/09/09 06:16:37;;;;;;;;;;;;;;;20.29;59.73;96196.59;5054544;28;19973;-84
2021/09/09 06:19:03;;;;;;;;;;;;;;;19.93;60.35;96196.19;5054060;28;19944;-84
2021/09/09 06:21:29;;;;;;;;;;;;;;;19.56;62.16;96219.72;5054213;28;20053;-84
2021/09/09 06:23:55;;;;;;;;;;;;;;;19.45;63.30;96221.66;5054075;28;19984;-84
2021/09/09 06:26:21;;;;;;;;;;;;;;;19.16;63.32;96221.66;5053953;28;19991;-84
2021/09/09 06:28:47;;;;;;;;;;;;;;;19.02;63.98;96232.13;5054005;28;19956;-84
2021/09/09 06:31:13;;;;;;;;;;;;;;;18.92;65.23;96228.72;5052734;28;20330;-84
2021/09/09 06:33:39;;;;;;;;;;;;;;;18.89;65.38;96235.41;5054140;28;19959;-84
2021/09/09 06:36:05;;;;;;;;;;;;;;;18.81;65.44;96228.78;5053766;28;20432;-83
2021/09/09 06:38:31;;;;;;;;;;;;;;;18.66;65.62;96231.53;5053810;28;19960;-83
2021/09/09 06:40:57;;;;;;;;;;;;;;;18.55;66.59;96238.75;5053887;28;19954;-84
2021/09/09 06:43:23;;;;;;;;;;;;;;;18.44;66.61;96232.72;5053667;28;19949;-83
2021/09/09 06:45:49;;;;;;;;;;;;;;;18.33;67.76;96235.66;5053724;28;19951;-83
2021/09/09 06:48:15;;;;;;;;;;;;;;;18.21;68.77;96233.34;5053780;28;20373;-83
2021/09/09 06:50:41;;;;;;;;;;;;;;;18.09;68.54;96236.28;5053356;28;19956;-83
2021/09/09 06:53:07;;;;;;;;;;;;;;;18.29;68.50;96230.13;5053195;28;19976;-83
2021/09/09 06:55:33;;;;;;;;;;;;;;;18.69;67.46;96225.69;5053558;28;19957;-83
2021/09/09 06:57:59;;;;;;;;;;;;;;;19.15;66.57;96225.38;5053114;28;19945;-83
2021/09/09 07:00:25;;;;;;;;;;;;;;;19.53;65.45;96212.31;5053576;28;20465;-83
2021/09/09 07:02:51;;;;;;;;;;;;;;;19.57;65.48;96221.31;5053308;28;19951;-83
2021/09/09 07:05:17;;;;;;;;;;;;;;;19.54;64.88;96227.16;5053342;28;19960;-83
2021/09/09 07:07:43;;;;;;;;;;;;;;;19.85;64.43;96210.94;5053472;28;20331;-83
2021/09/09 07:10:09;;;;;;;;;;;;;;;20.13;63.63;96214.59;5053428;28;20494;-83
2021/09/09 07:12:36;;;;;;;;;;;;;;;20.42;62.81;96209.19;5052973;28;20000;-83
2021/09/09 07:15:02;;;;;;;;;;;;;;;20.69;62.43;96205.13;5053363;28;19947;-83
2021/09/09 07:17:28;;;;;;;;;;;;;;;20.88;60.73;96191.78;5053189;28;19947;-83
2021/09/09 07:19:54;;;;;;;;;;;;;;;21.06;61.38;96204.31;5053372;28;19958;-83
2021/09/09 07:22:20;;;;;;;;;;;;;;;21.09;60.05;96181.59;5053123;28;19978;-83
2021/09/09 07:24:46;;;;;;;;;;;;;;;21.19;60.09;96188.66;5052976;28;19967;-83
2021/09/09 07:27:12;;;;;;;;;;;;;;;21.16;59.58;96187.34;5051952;28;19983;-83
2021/09/09 07:29:38;;;;;;;;;;;;;;;21.18;59.71;96190.50;5053144;28;20052;-83
2021/09/09 07:32:05;;;;;;;;;;;;;;;21.11;59.34;96190.09;5053011;28;20314;-83
2021/09/09 07:34:30;;;;;;;;;;;;;;;21.14;60.52;96210.84;5053120;28;20428;-83
2021/09/09 07:36:56;;;;;;;;;;;;;;;21.26;59.74;96199.72;5053347;28;19954;-82
2021/09/09 07:39:22;;;;;;;;;;;;;;;21.27;59.79;96204.78;5052794;28;19952;-83
2021/09/09 07:41:48;;;;;;;;;;;;;;;21.40;60.42;96215.78;5051778;28;19957;-82
2021/09/09 07:44:14;;;;;;;;;;;;;;;21.61;59.81;96206.34;5053644;28;20029;-82
2021/09/09 07:46:40;;;;;;;;;;;;;;;21.72;59.46;96214.19;5057121;28;19941;-82
2021/09/09 07:49:08;;;;;;;;;;;;;;;21.88;59.54;96210.94;5056698;28;19949;-82
2021/09/09 07:51:35;;;;;;;;;;;;;;;22.09;59.46;96214.00;5056864;28;19965;-82
2021/09/09 07:54:01;;;;;;;;;;;;;;;22.07;57.59;96204.72;5056459;28;20334;-82
2021/09/09 07:56:27;;;;;;;;;;;;;;;22.06;59.47;96217.25;5056507;28;19951;-82
2021/09/09 07:58:53;;;;;;;;;;;;;;;22.12;58.36;96209.94;5056678;28;20303;-82
2021/09/09 08:01:20;;;;;;;;;;;;;;;22.18;57.15;96202.63;5057302;28;19974;-82
2021/09/09 08:03:46;;;;;;;;;;;;;;;22.20;58.06;96217.25;5056663;28;20405;-82
2021/09/09 08:06:12;;;;;;;;;;;;;;;22.30;57.72;96210.94;5056568;28;19960;-82
2021/09/09 08:08:38;;;;;;;;;;;;;;;22.38;57.97;96212.91;5056753;28;19954;-83
2021/09/09 08:11:04;;;;;;;;;;;;;;;22.43;58.16;96217.38;5057045;28;19951;-83
2021/09/09 08:13:30;;;;;;;;;;;;;;;22.60;58.75;96222.09;5054528;28;19978;-82
2021/09/09 08:15:56;;;;;;;;;;;;;;;22.78;58.21;96210.44;5056612;28;19951;-82
2021/09/09 08:18:24;;;;;;;;;;;;;;;22.95;57.12;96211.66;5056308;28;19986;-82
2021/09/09 08:20:50;;;;;;;;;;;;;;;23.02;57.55;96212.06;5056292;28;19978;-82
2021/09/09 08:23:16;;;;;;;;;;;;;;;23.17;56.78;96201.00;5054990;28;19981;-82
2021/09/09 08:25:42;;;;;;;;;;;;;;;23.25;54.79;96181.53;5056216;28;19963;-82
2021/09/09 08:28:08;;;;;;;;;;;;;;;23.27;54.65;96181.25;5056172;28;19946;-82
2021/09/09 08:30:34;;;;;;;;;;;;;;;23.32;56.47;96205.19;5056105;28;19965;-82
2021/09/09 08:33:00;;;;;;;;;;;;;;;23.42;55.46;96193.44;5056051;28;20051;-82
2021/09/09 08:35:26;;;;;;;;;;;;;;;23.52;54.77;96193.19;5055949;28;19961;-82
2021/09/09 08:37:52;;;;;;;;;;;;;;;23.59;54.41;96187.41;5055820;28;19956;-82
2021/09/09 08:40:18;;;;;;;;;;;;;;;23.55;53.22;96181.06;5055108;28;19962;-82
2021/09/09 08:42:44;;;;;;;;;;;;;;;23.56;54.21;96202.19;5055979;28;19963;-82
2021/09/09 08:45:11;;;;;;;;;;;;;;;23.64;53.25;96185.34;5056270;28;20416;-82
2021/09/09 08:47:38;;;;;;;;;;;;;;;23.64;53.31;96204.09;5055987;28;19949;-82
2021/09/09 08:50:05;;;;;;;;;;;;;;;23.67;53.31;96202.72;5055059;28;19954;-82
2021/09/09 08:52:31;;;;;;;;;;;;;;;23.71;52.70;96195.66;5055245;28;19968;-82
2021/09/09 08:54:57;;;;;;;;;;;;;;;23.81;50.63;96181.22;5055995;28;19947;-82
2021/09/09 08:57:23;;;;;;;;;;;;;;;23.84;48.76;96151.16;5055981;28;20058;-82
2021/09/09 08:59:48;;;;;;;;;;;;;;;23.92;49.59;96177.16;5055515;28;19953;-82
2021/09/09 09:02:15;;;;;;;;;;;;;;;24.00;49.60;96163.03;5055424;28;20384;-82
2021/09/09 09:08:16;;;;;;;;;;;;;;;24.16;47.46;96152.63;5055843;28;19950;-82
2021/09/09 09:10:42;;;;;;;;;;;;;;;24.17;48.65;96181.03;5055264;28;19962;-82
2021/09/09 09:13:11;;;;;;;;;;;;;;;24.01;47.50;96175.28;5055182;28;20067;-82
2021/09/09 09:15:37;;;;;;;;;;;;;;;23.84;49.13;96196.66;5055567;28;20387;-82
2021/09/09 09:18:08;;;;;;;;;;;;;;;23.72;47.90;96186.50;5055834;28;19990;-82
2021/09/09 09:20:42;;;;;;;;;;;;;;;23.73;49.71;96206.84;5055254;28;19953;-82
2021/09/09 09:23:08;;;;;;;;;;;;;;;23.75;48.48;96187.75;5055123;28;19983;-82
2021/09/09 09:25:46;;;;;;;;;;;;;;;23.80;49.90;96204.53;5054968;28;20396;-82
2021/09/09 09:28:12;;;;;;;;;;;;;;;23.89;49.14;96202.66;5055220;28;19999;-81
2021/09/09 09:30:38;;;;;;;;;;;;;;;23.93;50.47;96218.13;5054959;28;19955;-82
2021/09/09 09:33:04;;;;;;;;;;;;;;;23.87;48.65;96199.50;5055025;28;20421;-82
2021/09/09 09:35:30;;;;;;;;;;;;;;;23.84;49.36;96212.75;5054988;28;20340;-82
2021/09/09 09:37:59;;;;;;;;;;;;;;;23.94;49.17;96207.13;5055117;28;19951;-82
2021/09/09 09:40:29;;;;;;;;;;;;;;;24.02;48.56;96197.50;5054473;28;19957;-82
2021/09/09 09:42:56;;;;;;;;;;;;;;;24.08;49.41;96213.13;5055043;28;19975;-82
2021/09/09 09:45:23;;;;;;;;;;;;;;;24.18;50.28;96225.47;5054063;28;19950;-81
2021/09/09 09:47:49;;;;;;;;;;;;;;;24.20;49.85;96223.25;5054635;28;19956;-82
2021/09/09 09:50:22;;;;;;;;;;;;;;;24.25;49.25;96212.41;5054823;28;19956;-82
2021/09/09 09:52:48;;;;;;;;;;;;;;;24.27;48.98;96217.44;5054176;28;19984;-82
2021/09/09 09:55:14;;;;;;;;;;;;;;;24.23;49.96;96228.00;5055185;28;19954;-82
2021/09/09 09:58:09;;;;;;;;;;;;;;;24.22;50.18;96225.63;5054470;28;19954;-81
2021/09/09 10:00:36;;;;;;;;;;;;;;;24.17;48.51;96220.41;5041117;28;19945;-81
2021/09/09 10:03:02;;;;;;;;;;;;;;;24.10;49.17;96227.00;5054427;28;19958;-82
2021/09/09 10:05:29;;;;;;;;;;;;;;;24.16;50.41;96237.59;5054101;28;20360;-81
2021/09/09 10:07:55;;;;;;;;;;;;;;;24.20;48.66;96227.84;5054065;28;19953;-81
2021/09/09 10:10:23;;;;;;;;;;;;;;;24.19;47.44;96215.53;5054188;28;20036;-81
2021/09/09 10:12:49;;;;;;;;;;;;;;;24.30;48.69;96216.81;5054117;28;19981;-81
2021/09/09 10:15:16;;;;;;;;;;;;;;;24.41;49.04;96222.69;5054047;28;19957;-81
2021/09/09 10:17:42;;;;;;;;;;;;;;;24.44;49.22;96230.91;5054185;28;19951;-82
2021/09/09 10:20:27;;;;;;;;;;;;;;;24.49;49.15;96222.72;5054104;28;20410;-81
2021/09/09 10:23:15;;;;;;;;;;;;;;;24.61;47.96;96214.06;5041774;28;19988;-82
2021/09/09 10:25:48;;;;;;;;;;;;;;;24.67;49.94;96228.91;5051405;28;19948;-81
2021/09/09 10:28:34;;;;;;;;;;;;;;;24.68;48.38;96210.94;5038695;28;20000;-81
2021/09/09 10:31:10;;;;;;;;;;;;;;;24.70;49.48;96225.59;5054043;28;19951;-81
2021/09/09 10:33:47;;;;;;;;;;;;;;;24.68;47.45;96208.25;5053849;28;19967;-81
2021/09/09 10:36:39;;;;;;;;;;;;;;;24.56;48.87;96229.50;5050711;28;19962;-82
2021/09/09 10:39:18;;;;;;;;;;;;;;;24.43;48.93;96218.59;5053471;28;20430;-81
2021/09/09 10:42:25;;;;;;;;;;;;;;;24.47;48.99;96224.91;5046770;28;19950;-81
2021/09/09 10:45:00;;;;;;;;;;;;;;;24.62;48.58;96220.22;5053620;28;19950;-81
2021/09/09 10:48:01;;;;;;;;;;;;;;;24.78;47.75;96204.44;5053739;28;19941;-81
2021/09/09 10:51:02;;;;;;;;;;;;;;;24.98;48.46;96221.81;5052905;28;19962;-81
2021/09/09 10:53:55;;;;;;;;;;;;;;;25.18;47.81;96205.06;5053351;28;19983;-81
2021/09/09 10:56:47;;;;;;;;;;;;;;;25.35;45.38;96192.78;5052398;28;19961;-81
2021/09/09 10:59:20;;;;;;;;;;;;;;;25.52;44.87;96188.13;5053236;28;19948;-81
2021/09/09 11:01:49;;;;;;;;;;;;;;;25.63;46.09;96195.84;5053205;28;19959;-81
2021/09/09 11:04:27;;;;;;;;;;;;;;;25.67;42.93;96169.91;5053821;28;19964;-81
2021/09/09 11:07:18;;;;;;;;;;;;;;;25.75;44.85;96181.75;5053304;28;20408;-81
2021/09/09 11:10:06;;;;;;;;;;;;;;;25.89;44.07;96182.31;5045840;28;19952;-81
2021/09/09 11:12:54;;;;;;;;;;;;;;;25.99;43.66;96210.75;5011607;28;19981;-81
2021/09/09 11:15:38;;;;;;;;;;;;;;;25.97;41.56;96197.63;5011552;28;19969;-81
2021/09/09 11:18:32;;;;;;;;;;;;;;;26.01;42.68;96216.56;4994719;28;19956;-81
2021/09/09 11:21:20;;;;;;;;;;;;;;;26.11;41.70;96208.16;4995521;28;19962;-81
2021/09/09 11:23:48;;;;;;;;;;;;;;;26.06;40.78;96208.31;5015201;28;20374;-81
2021/09/09 11:26:26;;;;;;;;;;;;;;;26.14;43.47;96226.31;5006504;28;19972;-81
2021/09/09 11:28:55;;;;;;;;;;;;;;;26.32;41.73;96205.50;5015426;28;19972;-81
2021/09/09 11:31:22;;;;;;;;;;;;;;;26.53;41.67;96217.06;5015463;28;19950;-81
2021/09/09 11:33:55;;;;;;;;;;;;;;;26.69;41.08;96205.75;5015530;28;19966;-80
2021/09/09 11:36:34;;;;;;;;;;;;;;;26.83;41.24;96222.44;5020131;28;20438;-80
2021/09/09 11:39:08;;;;;;;;;;;;;;;27.02;40.43;96219.28;5043149;28;19944;-80
2021/09/09 11:41:40;;;;;;;;;;;;;;;27.15;38.79;96195.88;5057113;28;19954;-80
2021/09/09 11:44:11;;;;;;;;;;;;;;;27.17;38.10;96193.66;5056896;28;19953;-81
2021/09/09 11:46:57;;;;;;;;;;;;;;;27.23;39.54;96210.41;5056415;28;19952;-81
2021/09/09 11:49:25;;;;;;;;;;;;;;;27.30;40.77;96222.22;5056789;28;19952;-81
2021/09/09 11:51:59;;;;;;;;;;;;;;;27.35;38.74;96198.91;5056990;28;20330;-81
2021/09/09 11:54:43;;;;;;;;;;;;;;;27.33;37.29;96199.22;5057074;28;19978;-81
2021/09/09 11:57:16;;;;;;;;;;;;;;;27.27;39.58;96212.09;5047725;28;19950;-81
2021/09/09 11:59:51;;;;;;;;;;;;;;;27.13;38.01;96201.63;5056809;28;19958;-81
2021/09/09 12:02:38;;;;;;;;;;;;;;;27.20;38.56;96211.84;5035093;28;20403;-81
2021/09/09 12:05:08;;;;;;;;;;;;;;;27.36;38.74;96213.94;5056669;28;20008;-81
2021/09/09 12:07:42;;;;;;;;;;;;;;;27.49;38.02;96208.25;5056600;28;20316;-81
2021/09/09 12:10:12;;;;;;;;;;;;;;;27.57;38.08;96220.03;5054012;28;19954;-80
2021/09/09 12:13:08;;;;;;;;;;;;;;;27.55;37.41;96211.53;5027376;28;19964;-80
2021/09/09 12:15:43;;;;;;;;;;;;;;;27.52;36.87;96199.50;5055514;28;20335;-80
2021/09/09 12:18:13;;;;;;;;;;;;;;;27.55;38.48;96222.31;5040262;28;20412;-81
2021/09/09 12:20:39;;;;;;;;;;;;;;;27.67;36.13;96199.97;5056257;28;19958;-81
2021/09/09 12:23:16;;;;;;;;;;;;;;;27.82;36.62;96203.94;5054947;28;19976;-81
2021/09/09 12:25:49;;;;;;;;;;;;;;;27.91;35.95;96194.66;5055004;28;19955;-81
2021/09/09 12:28:35;;;;;;;;;;;;;;;27.92;36.97;96201.59;5053808;28;20315;-80
2021/09/09 12:31:13;;;;;;;;;;;;;;;28.10;37.50;96217.56;5054373;28;19955;-80
2021/09/09 12:34:18;;;;;;;;;;;;;;;28.26;36.49;96204.97;5049098;28;19967;-80
2021/09/09 12:37:14;;;;;;;;;;;;;;;28.33;36.52;96210.59;5051903;28;20421;-80
2021/09/09 12:39:47;;;;;;;;;;;;;;;28.36;35.92;96214.53;5054623;28;20419;-81
2021/09/09 12:42:13;;;;;;;;;;;;;;;28.32;36.06;96205.53;5055313;28;19962;-80
2021/09/09 12:44:47;;;;;;;;;;;;;;;28.35;35.13;96194.09;5054509;28;20350;-80
2021/09/09 12:47:15;;;;;;;;;;;;;;;28.39;34.79;96194.97;5054685;28;19967;-80
2021/09/09 12:49:42;;;;;;;;;;;;;;;28.41;35.38;96194.63;5054346;28;19950;-80
2021/09/09 12:52:17;;;;;;;;;;;;;;;28.40;36.58;96212.72;5054727;28;19960;-81
2021/09/09 12:54:44;;;;;;;;;;;;;;;28.44;35.42;96200.13;5054527;28;20045;-80
2021/09/09 12:57:31;;;;;;;;;;;;;;;28.45;35.83;96199.00;5053885;28;20016;-80
2021/09/09 13:00:00;;;;;;;;;;;;;;;28.43;34.23;96203.16;5054345;28;19958;-80